Terminal Aerodrome Forecast
Issued by NWS

Home | Current Version | Previous Version | Graphics & Text | Print | Product List | Glossary On
Versions: 1 2 3 4 5 6 7 8 9 10 11 12 13 14 15 16
423
FTUS43 KMPX 141736
TAFRWF
TAF
KRWF 141736Z 1418/1518 10010G16KT P6SM -SHRA BKN015
     FM142200 04011G16KT 3SM -SHRA BR OVC008
     FM150400 34015G28KT 4SM -SHRA BR OVC012
     FM150800 32014G21KT P6SM SCT020 OVC035
     FM151200 31010KT P6SM SCT035=

USA.gov is the U.S. government's official web portal to all federal, state and local government web resources and services.